createdAt,value
2023-01-28T00:02:48.548Z,-0.41
2023-01-28T00:05:50.203Z,-0.43
2023-01-28T00:08:51.779Z,-0.44
2023-01-28T00:11:53.521Z,-0.47
2023-01-28T00:14:55.137Z,-0.51
2023-01-28T00:17:56.702Z,-0.53
2023-01-28T00:21:08.390Z,-0.56
2023-01-28T00:24:10.023Z,-0.60
2023-01-28T00:27:12.032Z,-0.63
2023-01-28T00:30:14.045Z,-0.65
2023-01-28T00:33:15.662Z,-0.66
2023-01-28T00:36:19.034Z,-0.69
2023-01-28T00:39:20.579Z,-0.70
2023-01-28T00:42:22.094Z,-0.71
2023-01-28T00:45:23.704Z,-0.70
2023-01-28T00:48:25.261Z,-0.73
2023-01-28T00:51:26.816Z,-0.74
2023-01-28T00:54:28.410Z,-0.74
2023-01-28T00:57:29.961Z,-0.76
2023-01-28T01:00:31.597Z,-0.78
2023-01-28T01:03:33.202Z,-0.82
2023-01-28T01:06:39.740Z,-0.83
2023-01-28T01:09:41.461Z,-0.85
2023-01-28T01:12:43.072Z,-0.86
2023-01-28T01:15:44.680Z,-0.87
2023-01-28T01:18:46.392Z,-0.88
2023-01-28T01:21:50.835Z,-0.89
2023-01-28T01:24:52.485Z,-0.90
2023-01-28T01:27:54.062Z,-0.92
2023-01-28T01:31:07.612Z,-0.95
2023-01-28T01:34:09.768Z,-0.99
2023-01-28T01:37:11.447Z,-1.00
2023-01-28T01:40:13.191Z,-1.02
2023-01-28T01:43:20.053Z,-1.05
2023-01-28T01:46:28.865Z,-1.10
2023-01-28T01:49:30.492Z,-1.14
2023-01-28T01:52:35.310Z,-1.18
2023-01-28T01:55:41.205Z,-1.21
2023-01-28T01:58:46.079Z,-1.26
2023-01-28T02:01:48.563Z,-1.30
2023-01-28T02:04:50.229Z,-1.34
2023-01-28T02:08:17.429Z,-1.37
2023-01-28T02:11:19.027Z,-1.41
2023-01-28T02:14:30.896Z,-1.43
2023-01-28T02:17:33.180Z,-1.45
2023-01-28T02:20:37.742Z,-1.46
2023-01-28T02:24:10.322Z,-1.48
2023-01-28T02:27:21.493Z,-1.52
2023-01-28T02:30:32.716Z,-1.56
2023-01-28T02:33:52.665Z,-1.59
2023-01-28T02:37:04.022Z,-1.60
2023-01-28T02:40:11.390Z,-1.63
2023-01-28T02:43:14.975Z,-1.62
2023-01-28T02:46:44.371Z,-1.63
2023-01-28T02:49:53.538Z,-1.65
2023-01-28T02:53:43.898Z,-1.66
2023-01-28T02:57:16.736Z,-1.69
2023-01-28T03:00:41.681Z,-1.72
2023-01-28T03:04:08.430Z,-1.77
2023-01-28T03:07:12.600Z,-1.77
2023-01-28T03:10:18.621Z,-1.78
2023-01-28T03:13:38.733Z,-1.81
2023-01-28T03:16:59.694Z,-1.82
2023-01-28T03:20:20.020Z,-1.83
2023-01-28T03:23:46.934Z,-1.86
2023-01-28T03:27:17.040Z,-1.85
2023-01-28T03:30:42.575Z,-1.88
2023-01-28T03:34:03.824Z,-1.90
2023-01-28T03:37:05.419Z,-1.93
2023-01-28T03:40:08.563Z,-1.94
2023-01-28T03:43:10.131Z,-1.94
2023-01-28T03:46:11.730Z,-1.95
2023-01-28T03:49:13.386Z,-1.95
2023-01-28T03:52:19.499Z,-1.95
2023-01-28T03:55:21.081Z,-1.99
2023-01-28T03:58:27.283Z,-2.00
2023-01-28T04:01:28.898Z,-2.03
2023-01-28T04:04:32.647Z,-2.06
2023-01-28T04:07:34.344Z,-2.09
2023-01-28T04:10:36.004Z,-2.12
2023-01-28T04:13:37.550Z,-2.15
2023-01-28T04:16:39.269Z,-2.19
2023-01-28T04:19:41.084Z,-2.22
2023-01-28T04:22:43.452Z,-2.24
2023-01-28T04:25:45.076Z,-2.27
2023-01-28T04:28:46.601Z,-2.30
2023-01-28T04:31:48.192Z,-2.31
2023-01-28T04:34:49.715Z,-2.34
2023-01-28T04:37:51.281Z,-2.36
2023-01-28T04:40:53.758Z,-2.38
2023-01-28T04:43:56.201Z,-2.40
2023-01-28T04:46:57.779Z,-2.41
2023-01-28T04:49:59.280Z,-2.42
2023-01-28T04:53:00.824Z,-2.44
2023-01-28T04:56:02.439Z,-2.47
2023-01-28T04:59:04.006Z,-2.49
2023-01-28T05:02:05.638Z,-2.51
2023-01-28T05:05:09.030Z,-2.54
2023-01-28T05:08:10.630Z,-2.57
2023-01-28T05:11:13.306Z,-2.60
2023-01-28T05:14:14.932Z,-2.63
2023-01-28T05:17:16.519Z,-2.65
2023-01-28T05:20:18.111Z,-2.67
2023-01-28T05:23:19.704Z,-2.68
2023-01-28T05:26:21.560Z,-2.73
2023-01-28T05:29:23.139Z,-2.79
2023-01-28T05:32:25.167Z,-2.83
2023-01-28T05:35:26.877Z,-2.88
2023-01-28T05:38:28.433Z,-2.93
2023-01-28T05:41:30.043Z,-2.97
2023-01-28T05:44:31.629Z,-3.00
2023-01-28T05:47:34.254Z,-2.83
2023-01-28T05:50:35.902Z,-2.85
2023-01-28T05:53:37.514Z,-2.89
2023-01-28T05:56:40.333Z,-2.95
2023-01-28T05:59:41.913Z,-3.03
2023-01-28T06:02:43.847Z,-3.10
2023-01-28T06:05:45.420Z,-3.15
2023-01-28T06:08:47.102Z,-3.20
2023-01-28T06:11:50.335Z,-3.23
2023-01-28T06:14:51.919Z,-3.25
2023-01-28T06:17:53.461Z,-3.25
2023-01-28T06:20:55.098Z,-3.26
2023-01-28T06:23:56.711Z,-3.29
2023-01-28T06:26:58.556Z,-3.31
2023-01-28T06:30:00.145Z,-3.34
2023-01-28T06:33:01.866Z,-3.38
2023-01-28T06:36:04.645Z,-3.40
2023-01-28T06:39:06.191Z,-3.41
2023-01-28T06:42:07.788Z,-3.40
2023-01-28T06:45:09.717Z,-3.38
2023-01-28T06:48:11.256Z,-3.40
2023-01-28T06:51:12.854Z,-3.38
2023-01-28T06:54:14.765Z,-3.40
2023-01-28T06:57:16.301Z,-3.40
2023-01-28T07:00:18.796Z,-3.40
2023-01-28T07:03:20.553Z,-3.16
2023-01-28T07:06:22.127Z,-3.13
2023-01-28T07:09:23.714Z,-3.14
2023-01-28T07:12:25.316Z,-3.19
2023-01-28T07:15:27.721Z,-3.26
2023-01-28T07:18:29.331Z,-3.33
2023-01-28T07:21:31.020Z,-3.39
2023-01-28T07:24:33.050Z,-3.44
2023-01-28T07:27:34.639Z,-3.49
2023-01-28T07:30:36.142Z,-3.52
2023-01-28T07:33:37.699Z,-3.55
2023-01-28T07:36:39.353Z,-3.56
2023-01-28T07:39:40.848Z,-3.58
2023-01-28T07:42:42.390Z,-3.56
2023-01-28T07:45:43.930Z,-3.58
2023-01-28T07:48:45.790Z,-3.61
2023-01-28T07:51:48.944Z,-3.65
2023-01-28T07:54:50.493Z,-3.67
2023-01-28T07:57:58.590Z,-3.71
2023-01-28T08:01:00.956Z,-3.71
2023-01-28T08:04:02.668Z,-3.65
2023-01-28T08:07:07.214Z,-3.60
2023-01-28T08:10:11.063Z,-3.53
2023-01-28T08:13:14.036Z,-3.48
2023-01-28T08:16:15.747Z,-3.43
2023-01-28T08:19:18.353Z,-3.38
2023-01-28T08:22:25.343Z,-3.33
2023-01-28T08:25:26.853Z,-3.28
2023-01-28T08:28:28.524Z,-3.14
2023-01-28T08:31:30.089Z,-3.07
2023-01-28T08:34:31.726Z,-2.99
2023-01-28T08:37:33.288Z,-2.86
2023-01-28T08:40:35.524Z,-2.81
2023-01-28T08:43:37.143Z,-2.78
2023-01-28T08:46:38.826Z,-2.74
2023-01-28T08:49:40.564Z,-2.70
2023-01-28T08:52:44.463Z,-2.60
2023-01-28T08:55:46.861Z,-2.52
2023-01-28T08:58:48.403Z,-2.45
2023-01-28T09:01:49.946Z,-2.38
2023-01-28T09:04:51.547Z,-2.32
2023-01-28T09:07:53.138Z,-2.25
2023-01-28T09:10:56.513Z,-2.20
2023-01-28T09:13:58.835Z,-2.16
2023-01-28T09:17:01.730Z,-2.10
2023-01-28T09:20:04.605Z,-2.04
2023-01-28T09:23:06.926Z,-2.00
2023-01-28T09:26:09.479Z,-1.96
2023-01-28T09:29:11.101Z,-1.92
2023-01-28T09:32:12.729Z,-1.85
2023-01-28T09:35:15.318Z,-1.81
2023-01-28T09:38:16.946Z,-1.77
2023-01-28T09:41:25.619Z,-1.73
2023-01-28T09:44:59.302Z,-1.67
2023-01-28T09:48:03.829Z,-1.61
2023-01-28T09:51:10.715Z,-1.56
2023-01-28T09:54:22.122Z,-1.48
2023-01-28T09:57:26.335Z,-1.42
2023-01-28T10:00:56.123Z,-1.31
2023-01-28T10:04:17.738Z,-1.24
2023-01-28T10:07:25.353Z,-1.17
2023-01-28T10:10:34.040Z,-1.11
2023-01-28T10:13:57.060Z,-1.06
2023-01-28T10:17:25.738Z,-1.06
2023-01-28T10:20:36.149Z,-1.00
2023-01-28T10:23:58.590Z,-0.91
2023-01-28T10:27:00.951Z,-0.80
2023-01-28T10:30:25.557Z,-0.67
2023-01-28T10:33:39.989Z,-0.55
2023-01-28T10:36:42.413Z,-0.51
2023-01-28T10:39:45.160Z,-0.24
2023-01-28T10:42:46.702Z,-0.10
2023-01-28T10:46:10.835Z,0.01
2023-01-28T10:49:15.419Z,0.10
2023-01-28T10:52:18.527Z,0.18
2023-01-28T10:55:20.126Z,0.24
2023-01-28T10:58:25.441Z,0.27
2023-01-28T11:01:39.260Z,0.30
2023-01-28T11:04:40.795Z,0.35
2023-01-28T11:07:42.522Z,0.43
2023-01-28T11:10:45.630Z,1.00
2023-01-28T11:13:51.332Z,1.51
2023-01-28T11:16:56.459Z,1.70
2023-01-28T11:20:11.192Z,1.76
2023-01-28T11:23:24.893Z,1.79
2023-01-28T11:26:31.198Z,1.78
2023-01-28T11:29:34.851Z,1.75
2023-01-28T11:32:36.505Z,1.68
2023-01-28T11:35:38.114Z,1.62
2023-01-28T11:38:52.070Z,1.60
2023-01-28T11:41:54.380Z,1.57
2023-01-28T11:44:56.007Z,1.55
2023-01-28T11:48:00.277Z,1.56
2023-01-28T11:51:17.261Z,1.57
2023-01-28T11:54:38.009Z,1.57
2023-01-28T11:57:52.464Z,1.53
2023-01-28T12:00:59.838Z,1.53
2023-01-28T12:04:10.378Z,1.53
2023-01-28T12:07:11.905Z,1.51
2023-01-28T12:10:26.876Z,1.50
2023-01-28T12:14:07.062Z,1.52
2023-01-28T12:17:33.581Z,1.52
2023-01-28T12:20:59.377Z,1.56
2023-01-28T12:24:14.495Z,1.53
2023-01-28T12:27:55.925Z,1.50
2023-01-28T12:31:15.599Z,1.46
2023-01-28T12:34:39.105Z,1.45
2023-01-28T12:38:14.617Z,1.38
2023-01-28T12:41:21.367Z,1.33
2023-01-28T12:44:38.156Z,1.31
2023-01-28T12:47:43.901Z,1.27
2023-01-28T12:50:53.597Z,1.27
2023-01-28T12:53:59.023Z,1.26
2023-01-28T12:57:03.134Z,1.28
2023-01-28T13:00:23.423Z,1.28
2023-01-28T13:03:35.379Z,1.44
2023-01-28T13:06:57.033Z,1.52
2023-01-28T13:10:20.643Z,1.53
2023-01-28T13:13:35.983Z,1.53
2023-01-28T13:16:38.241Z,1.50
2023-01-28T13:19:41.999Z,1.49
2023-01-28T13:22:45.858Z,1.51
2023-01-28T13:25:53.514Z,1.55
2023-01-28T13:29:08.365Z,1.56
2023-01-28T13:32:36.966Z,1.57
2023-01-28T13:35:40.972Z,1.55
2023-01-28T13:38:43.566Z,1.57
2023-01-28T13:41:47.781Z,1.59
2023-01-28T13:44:49.552Z,1.61
2023-01-28T13:48:01.372Z,1.64
2023-01-28T13:51:04.437Z,1.66
2023-01-28T13:54:17.101Z,1.67
2023-01-28T13:57:24.656Z,1.68
2023-01-28T14:00:50.194Z,1.71
2023-01-28T14:04:19.403Z,1.68
2023-01-28T14:07:48.479Z,1.68
2023-01-28T14:11:12.588Z,1.69
2023-01-28T14:14:32.910Z,1.71
2023-01-28T14:17:49.699Z,1.73
2023-01-28T14:20:53.455Z,1.73
2023-01-28T14:23:57.355Z,1.73
2023-01-28T14:27:08.229Z,1.71
2023-01-28T14:30:25.880Z,1.72
2023-01-28T14:33:27.907Z,1.71
2023-01-28T14:36:30.403Z,1.72
2023-01-28T14:39:53.618Z,1.75
2023-01-28T14:42:56.434Z,1.75
2023-01-28T14:46:23.339Z,1.74
2023-01-28T14:49:46.418Z,1.73
2023-01-28T14:53:15.839Z,1.73
2023-01-28T14:57:01.254Z,1.71
2023-01-28T15:00:16.638Z,1.70
2023-01-28T15:03:26.252Z,1.69
2023-01-28T15:06:35.622Z,1.68
2023-01-28T15:09:37.222Z,1.70
2023-01-28T15:12:41.122Z,1.70
2023-01-28T15:15:47.521Z,1.70
2023-01-28T15:18:50.982Z,1.71
2023-01-28T15:21:57.084Z,1.70
2023-01-28T15:24:58.762Z,1.70
2023-01-28T15:28:01.747Z,1.67
2023-01-28T15:31:03.764Z,1.64
2023-01-28T15:34:16.767Z,1.62
2023-01-28T15:37:19.283Z,1.62
2023-01-28T15:40:22.730Z,1.59
2023-01-28T15:43:30.539Z,1.57
2023-01-28T15:46:32.445Z,1.54
2023-01-28T15:49:41.611Z,1.50
2023-01-28T15:52:45.411Z,1.47
2023-01-28T15:55:46.997Z,1.45
2023-01-28T15:58:48.538Z,1.40
2023-01-28T16:01:50.222Z,1.39
2023-01-28T16:05:03.775Z,1.38
2023-01-28T16:08:27.652Z,1.37
2023-01-28T16:11:33.884Z,1.33
2023-01-28T16:14:43.655Z,1.31
2023-01-28T16:17:49.189Z,1.31
2023-01-28T16:20:50.976Z,1.30
2023-01-28T16:23:59.905Z,1.30
2023-01-28T16:27:07.155Z,1.31
2023-01-28T16:30:11.379Z,1.31
2023-01-28T16:33:20.671Z,1.45
2023-01-28T16:36:22.178Z,1.52
2023-01-28T16:39:23.784Z,1.55
2023-01-28T16:42:25.356Z,1.56
2023-01-28T16:45:27.078Z,1.56
2023-01-28T16:48:30.519Z,1.55
2023-01-28T16:51:32.497Z,1.52
2023-01-28T16:54:34.727Z,1.49
2023-01-28T16:57:38.232Z,1.47
2023-01-28T17:00:39.929Z,1.49
2023-01-28T17:03:42.242Z,1.48
2023-01-28T17:06:45.233Z,1.51
2023-01-28T17:09:46.841Z,1.50
2023-01-28T17:12:48.913Z,1.49
2023-01-28T17:15:51.045Z,1.46
2023-01-28T17:18:53.441Z,1.46
2023-01-28T17:21:54.952Z,1.45
2023-01-28T17:24:56.559Z,1.43
2023-01-28T17:27:58.137Z,1.46
2023-01-28T17:31:00.056Z,1.47
2023-01-28T17:34:02.573Z,1.49
2023-01-28T17:37:04.128Z,1.49
2023-01-28T17:40:06.371Z,1.50
2023-01-28T17:43:08.020Z,1.50
2023-01-28T17:46:14.829Z,1.50
2023-01-28T17:49:16.451Z,1.49
2023-01-28T17:52:18.086Z,1.49
2023-01-28T17:55:19.664Z,1.51
2023-01-28T17:58:21.243Z,1.48
2023-01-28T18:01:24.969Z,1.47
2023-01-28T18:04:26.583Z,1.48
2023-01-28T18:07:28.152Z,1.47
2023-01-28T18:10:29.950Z,1.46
2023-01-28T18:13:31.787Z,1.47
2023-01-28T18:16:33.381Z,1.49
2023-01-28T18:19:35.236Z,1.66
2023-01-28T18:22:36.901Z,1.71
2023-01-28T18:25:38.454Z,1.69
2023-01-28T18:28:39.974Z,1.69
2023-01-28T18:31:41.562Z,1.70
2023-01-28T18:34:43.222Z,1.81
2023-01-28T18:37:44.727Z,1.84
2023-01-28T18:40:46.705Z,1.82
2023-01-28T18:43:48.241Z,1.81
2023-01-28T18:46:51.030Z,1.79
2023-01-28T18:49:52.609Z,1.77
2023-01-28T18:52:54.351Z,1.73
2023-01-28T18:55:55.893Z,1.70
2023-01-28T18:59:01.889Z,1.66
2023-01-28T19:02:03.593Z,1.64
2023-01-28T19:05:05.445Z,1.60
2023-01-28T19:08:08.969Z,1.55
2023-01-28T19:11:10.637Z,1.53
2023-01-28T19:14:14.385Z,1.52
2023-01-28T19:17:15.937Z,1.52
2023-01-28T19:20:18.284Z,1.51
2023-01-28T19:23:20.119Z,1.47
2023-01-28T19:26:22.565Z,1.45
2023-01-28T19:29:25.615Z,1.43
2023-01-28T19:32:27.956Z,1.41
2023-01-28T19:35:29.516Z,1.43
2023-01-28T19:38:31.109Z,1.44
2023-01-28T19:41:32.885Z,1.43
2023-01-28T19:44:34.552Z,1.41
2023-01-28T19:47:36.045Z,1.40
2023-01-28T19:50:37.592Z,1.40
2023-01-28T19:53:40.666Z,1.42
2023-01-28T19:56:42.265Z,1.42
2023-01-28T19:59:43.826Z,1.40
2023-01-28T20:02:49.711Z,1.38
2023-01-28T20:05:51.251Z,1.35
2023-01-28T20:08:54.787Z,1.34
2023-01-28T20:11:56.357Z,1.33
2023-01-28T20:14:58.197Z,1.33
2023-01-28T20:17:59.749Z,1.34
2023-01-28T20:21:01.858Z,1.33
2023-01-28T20:24:04.826Z,1.32
2023-01-28T20:27:06.613Z,1.31
2023-01-28T20:30:09.122Z,1.32
2023-01-28T20:33:10.740Z,1.32
2023-01-28T20:36:13.914Z,1.30
2023-01-28T20:39:15.646Z,1.28
2023-01-28T20:42:17.260Z,1.27
2023-01-28T20:45:18.946Z,1.27
2023-01-28T20:48:20.491Z,1.30
2023-01-28T20:51:24.765Z,1.30
2023-01-28T20:54:26.317Z,1.30
2023-01-28T20:57:27.886Z,1.32
2023-01-28T21:00:29.441Z,1.32
2023-01-28T21:03:31.208Z,1.30
2023-01-28T21:06:33.278Z,1.30
2023-01-28T21:09:35.178Z,1.30
2023-01-28T21:12:36.722Z,1.32
2023-01-28T21:15:38.817Z,1.31
2023-01-28T21:18:40.497Z,1.32
2023-01-28T21:21:42.950Z,1.31
2023-01-28T21:24:46.208Z,1.31
2023-01-28T21:27:48.697Z,1.30
2023-01-28T21:30:50.262Z,1.31
2023-01-28T21:33:54.991Z,1.33
2023-01-28T21:36:56.535Z,1.39
2023-01-28T21:39:58.617Z,1.53
2023-01-28T21:43:00.537Z,1.58
2023-01-28T21:46:03.120Z,1.56
2023-01-28T21:49:08.225Z,1.52
2023-01-28T21:52:09.849Z,1.50
2023-01-28T21:55:11.392Z,1.50
2023-01-28T21:58:31.486Z,1.48
2023-01-28T22:01:33.114Z,1.43
2023-01-28T22:04:51.757Z,1.38
2023-01-28T22:07:53.255Z,1.37
2023-01-28T22:10:55.360Z,1.35
2023-01-28T22:13:56.906Z,1.39
2023-01-28T22:16:58.615Z,1.39
2023-01-28T22:20:00.286Z,1.41
2023-01-28T22:23:01.829Z,1.43
2023-01-28T22:26:03.502Z,1.44
2023-01-28T22:29:05.511Z,1.43
2023-01-28T22:32:07.550Z,1.43
2023-01-28T22:35:09.309Z,1.40
2023-01-28T22:38:11.089Z,1.36
2023-01-28T22:41:19.286Z,1.36
2023-01-28T22:44:21.009Z,1.34
2023-01-28T22:47:22.563Z,1.28
2023-01-28T22:50:24.177Z,1.24
2023-01-28T22:53:25.673Z,1.19
2023-01-28T22:56:28.689Z,1.15
2023-01-28T22:59:30.286Z,1.15
2023-01-28T23:02:31.889Z,1.13
2023-01-28T23:05:33.691Z,1.13
2023-01-28T23:08:35.255Z,1.12
2023-01-28T23:11:36.892Z,1.13
2023-01-28T23:14:56.978Z,1.15
2023-01-28T23:18:16.950Z,1.42
2023-01-28T23:21:41.535Z,1.43
2023-01-28T23:24:43.136Z,1.42
2023-01-28T23:27:44.840Z,1.38
2023-01-28T23:30:46.399Z,1.33
2023-01-28T23:33:48.044Z,1.30
2023-01-28T23:36:50.591Z,1.27
2023-01-28T23:39:52.158Z,1.24
2023-01-28T23:42:55.418Z,1.21
2023-01-28T23:45:56.966Z,1.19
2023-01-28T23:48:58.551Z,1.16
2023-01-28T23:52:01.416Z,1.13
2023-01-28T23:55:03.554Z,1.11
2023-01-28T23:58:05.364Z,1.08
